sensor_id;sensor_type;location;lat;lon;timestamp;P1;durP1;ratioP1;P2;durP2;ratioP2
52866;SDS011;38739;53.324;6.862;2023-08-08T00:00:37;8.95;;;3.15;;
52866;SDS011;38739;53.324;6.862;2023-08-08T00:03:03;8.50;;;2.70;;
52866;SDS011;38739;53.324;6.862;2023-08-08T00:05:29;9.50;;;2.78;;
52866;SDS011;38739;53.324;6.862;2023-08-08T00:07:55;5.90;;;2.80;;
52866;SDS011;38739;53.324;6.862;2023-08-08T00:10:20;8.30;;;2.97;;
52866;SDS011;38739;53.324;6.862;2023-08-08T00:12:46;8.93;;;2.88;;
52866;SDS011;38739;53.324;6.862;2023-08-08T00:15:12;9.65;;;3.05;;
52866;SDS011;38739;53.324;6.862;2023-08-08T00:17:38;6.38;;;2.92;;
52866;SDS011;38739;53.324;6.862;2023-08-08T00:20:03;9.18;;;3.00;;
52866;SDS011;38739;53.324;6.862;2023-08-08T00:22:30;9.13;;;2.88;;
52866;SDS011;38739;53.324;6.862;2023-08-08T00:24:55;7.32;;;2.95;;
52866;SDS011;38739;53.324;6.862;2023-08-08T00:27:22;6.68;;;2.53;;
52866;SDS011;38739;53.324;6.862;2023-08-08T00:29:47;8.57;;;3.33;;
52866;SDS011;38739;53.324;6.862;2023-08-08T00:32:13;6.18;;;3.50;;
52866;SDS011;38739;53.324;6.862;2023-08-08T00:34:39;10.35;;;3.40;;
52866;SDS011;38739;53.324;6.862;2023-08-08T00:37:05;7.38;;;3.25;;
52866;SDS011;38739;53.324;6.862;2023-08-08T00:39:30;11.15;;;3.97;;
52866;SDS011;38739;53.324;6.862;2023-08-08T00:41:56;8.18;;;3.35;;
52866;SDS011;38739;53.324;6.862;2023-08-08T00:44:22;9.30;;;3.35;;
52866;SDS011;38739;53.324;6.862;2023-08-08T00:46:47;11.18;;;3.50;;
52866;SDS011;38739;53.324;6.862;2023-08-08T00:49:13;10.00;;;3.97;;
52866;SDS011;38739;53.324;6.862;2023-08-08T00:51:39;9.80;;;3.80;;
52866;SDS011;38739;53.324;6.862;2023-08-08T00:54:05;9.63;;;3.28;;
52866;SDS011;38739;53.324;6.862;2023-08-08T00:56:32;7.55;;;3.55;;
52866;SDS011;38739;53.324;6.862;2023-08-08T00:58:58;9.95;;;3.38;;
52866;SDS011;38739;53.324;6.862;2023-08-08T01:01:24;6.65;;;3.20;;
52866;SDS011;38739;53.324;6.862;2023-08-08T01:03:49;7.72;;;3.88;;
52866;SDS011;38739;53.324;6.862;2023-08-08T01:06:39;9.10;;;4.00;;
52866;SDS011;38739;53.324;6.862;2023-08-08T01:09:32;13.43;;;3.90;;
52866;SDS011;38739;53.324;6.862;2023-08-08T01:12:02;6.57;;;3.40;;
52866;SDS011;38739;53.324;6.862;2023-08-08T01:14:29;8.98;;;3.63;;
52866;SDS011;38739;53.324;6.862;2023-08-08T01:16:57;10.15;;;3.80;;
52866;SDS011;38739;53.324;6.862;2023-08-08T01:19:25;6.65;;;3.60;;
52866;SDS011;38739;53.324;6.862;2023-08-08T01:21:53;12.07;;;3.80;;
52866;SDS011;38739;53.324;6.862;2023-08-08T01:24:22;6.57;;;3.63;;
52866;SDS011;38739;53.324;6.862;2023-08-08T01:26:50;8.73;;;3.55;;
52866;SDS011;38739;53.324;6.862;2023-08-08T01:29:16;8.00;;;3.70;;
52866;SDS011;38739;53.324;6.862;2023-08-08T01:31:42;6.45;;;3.50;;
52866;SDS011;38739;53.324;6.862;2023-08-08T01:34:08;7.95;;;3.30;;
52866;SDS011;38739;53.324;6.862;2023-08-08T01:39:44;7.13;;;3.80;;
52866;SDS011;38739;53.324;6.862;2023-08-08T01:42:12;9.60;;;3.60;;
52866;SDS011;38739;53.324;6.862;2023-08-08T01:44:41;10.10;;;3.63;;
52866;SDS011;38739;53.324;6.862;2023-08-08T01:47:08;8.13;;;3.42;;
52866;SDS011;38739;53.324;6.862;2023-08-08T01:49:34;6.97;;;3.25;;
52866;SDS011;38739;53.324;6.862;2023-08-08T01:51:59;11.35;;;3.88;;
52866;SDS011;38739;53.324;6.862;2023-08-08T01:54:25;7.13;;;3.30;;
52866;SDS011;38739;53.324;6.862;2023-08-08T01:56:51;9.07;;;3.55;;
52866;SDS011;38739;53.324;6.862;2023-08-08T01:59:17;8.57;;;3.60;;
52866;SDS011;38739;53.324;6.862;2023-08-08T02:01:42;8.98;;;3.50;;
52866;SDS011;38739;53.324;6.862;2023-08-08T02:04:08;6.45;;;3.28;;
52866;SDS011;38739;53.324;6.862;2023-08-08T02:06:34;9.52;;;4.00;;
52866;SDS011;38739;53.324;6.862;2023-08-08T02:08:59;9.40;;;3.42;;
52866;SDS011;38739;53.324;6.862;2023-08-08T02:11:25;8.75;;;3.40;;
52866;SDS011;38739;53.324;6.862;2023-08-08T02:13:51;10.98;;;3.72;;
52866;SDS011;38739;53.324;6.862;2023-08-08T02:16:16;10.30;;;4.18;;
52866;SDS011;38739;53.324;6.862;2023-08-08T02:18:42;8.27;;;3.30;;
52866;SDS011;38739;53.324;6.862;2023-08-08T02:21:08;7.57;;;3.67;;
52866;SDS011;38739;53.324;6.862;2023-08-08T02:23:34;7.32;;;2.95;;
52866;SDS011;38739;53.324;6.862;2023-08-08T02:25:59;8.75;;;3.13;;
52866;SDS011;38739;53.324;6.862;2023-08-08T02:28:25;6.05;;;3.03;;
52866;SDS011;38739;53.324;6.862;2023-08-08T02:30:51;6.53;;;3.53;;
52866;SDS011;38739;53.324;6.862;2023-08-08T02:33:18;11.32;;;3.20;;
52866;SDS011;38739;53.324;6.862;2023-08-08T02:35:44;4.55;;;2.90;;
52866;SDS011;38739;53.324;6.862;2023-08-08T02:38:10;9.57;;;3.10;;
52866;SDS011;38739;53.324;6.862;2023-08-08T02:40:36;7.55;;;2.55;;
52866;SDS011;38739;53.324;6.862;2023-08-08T02:43:01;7.00;;;3.20;;
52866;SDS011;38739;53.324;6.862;2023-08-08T02:45:27;6.90;;;3.00;;
52866;SDS011;38739;53.324;6.862;2023-08-08T02:47:53;7.07;;;3.15;;
52866;SDS011;38739;53.324;6.862;2023-08-08T02:50:19;7.30;;;2.88;;
52866;SDS011;38739;53.324;6.862;2023-08-08T02:52:44;8.55;;;3.15;;
52866;SDS011;38739;53.324;6.862;2023-08-08T02:55:10;7.25;;;3.00;;
52866;SDS011;38739;53.324;6.862;2023-08-08T02:57:36;7.10;;;2.95;;
52866;SDS011;38739;53.324;6.862;2023-08-08T03:00:02;8.77;;;2.55;;
52866;SDS011;38739;53.324;6.862;2023-08-08T03:02:29;10.07;;;3.20;;
52866;SDS011;38739;53.324;6.862;2023-08-08T03:04:55;9.55;;;3.22;;
52866;SDS011;38739;53.324;6.862;2023-08-08T03:07:20;8.40;;;2.80;;
52866;SDS011;38739;53.324;6.862;2023-08-08T03:09:46;4.53;;;2.70;;
52866;SDS011;38739;53.324;6.862;2023-08-08T03:12:13;8.38;;;3.20;;
52866;SDS011;38739;53.324;6.862;2023-08-08T03:14:39;7.75;;;3.50;;
52866;SDS011;38739;53.324;6.862;2023-08-08T03:17:05;8.90;;;3.05;;
52866;SDS011;38739;53.324;6.862;2023-08-08T03:19:30;7.70;;;3.20;;
52866;SDS011;38739;53.324;6.862;2023-08-08T03:21:56;9.02;;;3.25;;
52866;SDS011;38739;53.324;6.862;2023-08-08T03:24:22;7.07;;;2.70;;
52866;SDS011;38739;53.324;6.862;2023-08-08T03:26:47;7.90;;;2.97;;
52866;SDS011;38739;53.324;6.862;2023-08-08T03:29:13;9.90;;;3.15;;
52866;SDS011;38739;53.324;6.862;2023-08-08T03:31:39;6.80;;;3.10;;
52866;SDS011;38739;53.324;6.862;2023-08-08T03:34:04;6.32;;;2.80;;
52866;SDS011;38739;53.324;6.862;2023-08-08T03:36:30;11.15;;;2.85;;
52866;SDS011;38739;53.324;6.862;2023-08-08T03:38:56;10.00;;;3.00;;
52866;SDS011;38739;53.324;6.862;2023-08-08T03:41:21;10.57;;;3.10;;
52866;SDS011;38739;53.324;6.862;2023-08-08T03:43:47;9.15;;;2.63;;
52866;SDS011;38739;53.324;6.862;2023-08-08T03:46:13;6.97;;;2.88;;
52866;SDS011;38739;53.324;6.862;2023-08-08T03:48:38;4.47;;;2.30;;
52866;SDS011;38739;53.324;6.862;2023-08-08T03:51:04;7.18;;;2.80;;
52866;SDS011;38739;53.324;6.862;2023-08-08T03:53:30;9.52;;;2.58;;
52866;SDS011;38739;53.324;6.862;2023-08-08T03:55:56;7.90;;;2.63;;
52866;SDS011;38739;53.324;6.862;2023-08-08T03:58:22;8.30;;;2.40;;
52866;SDS011;38739;53.324;6.862;2023-08-08T04:00:47;6.65;;;2.50;;
52866;SDS011;38739;53.324;6.862;2023-08-08T04:03:14;7.15;;;3.00;;
52866;SDS011;38739;53.324;6.862;2023-08-08T04:05:41;6.45;;;2.60;;
52866;SDS011;38739;53.324;6.862;2023-08-08T04:10:39;5.97;;;2.60;;
52866;SDS011;38739;53.324;6.862;2023-08-08T04:13:04;11.07;;;3.13;;
52866;SDS011;38739;53.324;6.862;2023-08-08T04:15:30;5.35;;;2.92;;
52866;SDS011;38739;53.324;6.862;2023-08-08T04:17:56;7.30;;;2.85;;
52866;SDS011;38739;53.324;6.862;2023-08-08T04:20:21;8.90;;;2.97;;
52866;SDS011;38739;53.324;6.862;2023-08-08T04:22:47;8.93;;;2.90;;
52866;SDS011;38739;53.324;6.862;2023-08-08T04:25:13;7.13;;;2.90;;
52866;SDS011;38739;53.324;6.862;2023-08-08T04:27:40;7.95;;;2.55;;
52866;SDS011;38739;53.324;6.862;2023-08-08T04:30:06;9.70;;;2.88;;
52866;SDS011;38739;53.324;6.862;2023-08-08T04:32:32;8.05;;;2.10;;
52866;SDS011;38739;53.324;6.862;2023-08-08T04:34:58;6.50;;;2.30;;
52866;SDS011;38739;53.324;6.862;2023-08-08T04:37:24;8.80;;;2.58;;
52866;SDS011;38739;53.324;6.862;2023-08-08T04:39:50;7.15;;;2.45;;
52866;SDS011;38739;53.324;6.862;2023-08-08T04:42:15;6.65;;;2.30;;
52866;SDS011;38739;53.324;6.862;2023-08-08T04:44:41;6.78;;;2.00;;
52866;SDS011;38739;53.324;6.862;2023-08-08T04:47:07;5.25;;;2.13;;
52866;SDS011;38739;53.324;6.862;2023-08-08T04:49:32;6.00;;;2.42;;
52866;SDS011;38739;53.324;6.862;2023-08-08T04:51:58;6.07;;;1.92;;
52866;SDS011;38739;53.324;6.862;2023-08-08T04:54:24;9.20;;;2.00;;
52866;SDS011;38739;53.324;6.862;2023-08-08T04:56:50;6.25;;;1.90;;
52866;SDS011;38739;53.324;6.862;2023-08-08T04:59:15;6.88;;;2.20;;
52866;SDS011;38739;53.324;6.862;2023-08-08T05:01:41;4.28;;;2.00;;
52866;SDS011;38739;53.324;6.862;2023-08-08T05:04:06;6.50;;;2.00;;
52866;SDS011;38739;53.324;6.862;2023-08-08T05:06:32;5.47;;;1.90;;
52866;SDS011;38739;53.324;6.862;2023-08-08T05:08:58;5.68;;;1.85;;
52866;SDS011;38739;53.324;6.862;2023-08-08T05:11:23;8.20;;;2.08;;
52866;SDS011;38739;53.324;6.862;2023-08-08T05:13:49;7.78;;;2.25;;
52866;SDS011;38739;53.324;6.862;2023-08-08T05:16:15;6.10;;;1.80;;
52866;SDS011;38739;53.324;6.862;2023-08-08T05:18:40;4.63;;;1.90;;
52866;SDS011;38739;53.324;6.862;2023-08-08T05:21:09;6.05;;;1.85;;
52866;SDS011;38739;53.324;6.862;2023-08-08T05:23:35;9.25;;;2.00;;
52866;SDS011;38739;53.324;6.862;2023-08-08T05:26:00;7.82;;;1.92;;
52866;SDS011;38739;53.324;6.862;2023-08-08T05:28:26;4.97;;;1.85;;
52866;SDS011;38739;53.324;6.862;2023-08-08T05:30:52;7.70;;;1.70;;
52866;SDS011;38739;53.324;6.862;2023-08-08T05:33:18;5.68;;;1.90;;
52866;SDS011;38739;53.324;6.862;2023-08-08T05:35:43;8.45;;;2.05;;
52866;SDS011;38739;53.324;6.862;2023-08-08T05:38:09;8.82;;;1.88;;
52866;SDS011;38739;53.324;6.862;2023-08-08T05:40:35;5.38;;;1.88;;
52866;SDS011;38739;53.324;6.862;2023-08-08T05:43:02;5.88;;;1.60;;
52866;SDS011;38739;53.324;6.862;2023-08-08T05:45:28;6.20;;;2.00;;
52866;SDS011;38739;53.324;6.862;2023-08-08T05:47:54;8.63;;;2.20;;
52866;SDS011;38739;53.324;6.862;2023-08-08T05:50:20;7.10;;;2.00;;
52866;SDS011;38739;53.324;6.862;2023-08-08T05:52:46;9.25;;;1.80;;
52866;SDS011;38739;53.324;6.862;2023-08-08T05:55:12;7.97;;;1.70;;
52866;SDS011;38739;53.324;6.862;2023-08-08T05:57:37;7.72;;;1.55;;
52866;SDS011;38739;53.324;6.862;2023-08-08T06:00:04;5.78;;;1.73;;
52866;SDS011;38739;53.324;6.862;2023-08-08T06:02:30;12.68;;;1.92;;
52866;SDS011;38739;53.324;6.862;2023-08-08T06:04:56;5.38;;;1.25;;
52866;SDS011;38739;53.324;6.862;2023-08-08T06:07:22;10.38;;;1.83;;
52866;SDS011;38739;53.324;6.862;2023-08-08T06:09:47;8.25;;;1.77;;
52866;SDS011;38739;53.324;6.862;2023-08-08T06:12:13;8.80;;;1.90;;
52866;SDS011;38739;53.324;6.862;2023-08-08T06:14:39;7.25;;;1.67;;
52866;SDS011;38739;53.324;6.862;2023-08-08T06:17:04;6.13;;;1.50;;
52866;SDS011;38739;53.324;6.862;2023-08-08T06:19:30;8.90;;;2.05;;
52866;SDS011;38739;53.324;6.862;2023-08-08T06:21:56;10.55;;;1.70;;
52866;SDS011;38739;53.324;6.862;2023-08-08T06:24:22;6.60;;;1.77;;
52866;SDS011;38739;53.324;6.862;2023-08-08T06:26:47;7.38;;;1.80;;
52866;SDS011;38739;53.324;6.862;2023-08-08T06:29:13;7.50;;;1.70;;
52866;SDS011;38739;53.324;6.862;2023-08-08T06:31:39;7.75;;;2.08;;
52866;SDS011;38739;53.324;6.862;2023-08-08T06:34:05;7.13;;;1.95;;
52866;SDS011;38739;53.324;6.862;2023-08-08T06:36:31;10.93;;;2.33;;
52866;SDS011;38739;53.324;6.862;2023-08-08T06:38:57;7.28;;;1.75;;
52866;SDS011;38739;53.324;6.862;2023-08-08T06:41:22;5.65;;;1.67;;
52866;SDS011;38739;53.324;6.862;2023-08-08T06:43:48;7.70;;;1.58;;
52866;SDS011;38739;53.324;6.862;2023-08-08T06:46:14;6.55;;;1.40;;
52866;SDS011;38739;53.324;6.862;2023-08-08T06:48:42;10.13;;;1.80;;
52866;SDS011;38739;53.324;6.862;2023-08-08T06:51:08;6.43;;;1.60;;
52866;SDS011;38739;53.324;6.862;2023-08-08T06:53:34;5.68;;;1.60;;
52866;SDS011;38739;53.324;6.862;2023-08-08T06:55:59;7.13;;;1.60;;
52866;SDS011;38739;53.324;6.862;2023-08-08T06:58:25;7.75;;;1.60;;
52866;SDS011;38739;53.324;6.862;2023-08-08T07:00:51;8.55;;;1.70;;
52866;SDS011;38739;53.324;6.862;2023-08-08T07:03:20;10.52;;;1.85;;
52866;SDS011;38739;53.324;6.862;2023-08-08T07:05:45;8.00;;;1.85;;
52866;SDS011;38739;53.324;6.862;2023-08-08T07:08:12;9.38;;;1.80;;
52866;SDS011;38739;53.324;6.862;2023-08-08T07:10:38;9.60;;;2.08;;
52866;SDS011;38739;53.324;6.862;2023-08-08T07:13:05;11.85;;;2.20;;
52866;SDS011;38739;53.324;6.862;2023-08-08T07:15:30;8.07;;;1.80;;
52866;SDS011;38739;53.324;6.862;2023-08-08T07:17:56;8.05;;;1.35;;
52866;SDS011;38739;53.324;6.862;2023-08-08T07:20:22;9.10;;;1.45;;
52866;SDS011;38739;53.324;6.862;2023-08-08T07:22:48;9.80;;;1.40;;
52866;SDS011;38739;53.324;6.862;2023-08-08T07:25:13;10.10;;;1.63;;
52866;SDS011;38739;53.324;6.862;2023-08-08T07:27:39;10.05;;;1.42;;
52866;SDS011;38739;53.324;6.862;2023-08-08T07:30:05;6.35;;;1.27;;
52866;SDS011;38739;53.324;6.862;2023-08-08T07:32:32;10.05;;;1.55;;
52866;SDS011;38739;53.324;6.862;2023-08-08T07:34:58;6.53;;;1.10;;
52866;SDS011;38739;53.324;6.862;2023-08-08T07:37:26;5.78;;;1.20;;
52866;SDS011;38739;53.324;6.862;2023-08-08T07:39:52;8.93;;;1.25;;
52866;SDS011;38739;53.324;6.862;2023-08-08T07:42:17;6.10;;;1.38;;
52866;SDS011;38739;53.324;6.862;2023-08-08T07:44:43;6.88;;;1.10;;
52866;SDS011;38739;53.324;6.862;2023-08-08T07:47:09;10.32;;;1.30;;
52866;SDS011;38739;53.324;6.862;2023-08-08T07:49:35;11.68;;;2.35;;
52866;SDS011;38739;53.324;6.862;2023-08-08T07:52:00;6.13;;;1.27;;
52866;SDS011;38739;53.324;6.862;2023-08-08T07:54:26;13.25;;;2.53;;
52866;SDS011;38739;53.324;6.862;2023-08-08T07:56:51;7.68;;;3.42;;
52866;SDS011;38739;53.324;6.862;2023-08-08T07:59:17;6.47;;;1.13;;
52866;SDS011;38739;53.324;6.862;2023-08-08T08:01:43;6.05;;;1.17;;
52866;SDS011;38739;53.324;6.862;2023-08-08T08:04:08;10.02;;;1.40;;
52866;SDS011;38739;53.324;6.862;2023-08-08T08:06:34;7.25;;;1.25;;
52866;SDS011;38739;53.324;6.862;2023-08-08T08:09:00;5.47;;;0.90;;
52866;SDS011;38739;53.324;6.862;2023-08-08T08:11:25;7.50;;;1.30;;
52866;SDS011;38739;53.324;6.862;2023-08-08T08:13:51;6.28;;;1.25;;
52866;SDS011;38739;53.324;6.862;2023-08-08T08:16:17;7.32;;;1.52;;
52866;SDS011;38739;53.324;6.862;2023-08-08T08:18:43;6.22;;;1.20;;
52866;SDS011;38739;53.324;6.862;2023-08-08T08:21:09;5.63;;;1.20;;
52866;SDS011;38739;53.324;6.862;2023-08-08T08:23:34;7.10;;;1.55;;
52866;SDS011;38739;53.324;6.862;2023-08-08T08:26:00;7.60;;;1.80;;
52866;SDS011;38739;53.324;6.862;2023-08-08T08:28:26;5.07;;;1.30;;
52866;SDS011;38739;53.324;6.862;2023-08-08T08:30:52;4.97;;;1.35;;
52866;SDS011;38739;53.324;6.862;2023-08-08T08:33:18;6.10;;;1.42;;
52866;SDS011;38739;53.324;6.862;2023-08-08T08:35:44;4.45;;;1.27;;
52866;SDS011;38739;53.324;6.862;2023-08-08T08:38:10;9.23;;;1.27;;
52866;SDS011;38739;53.324;6.862;2023-08-08T08:40:37;5.78;;;1.20;;
52866;SDS011;38739;53.324;6.862;2023-08-08T08:43:06;9.30;;;1.60;;
52866;SDS011;38739;53.324;6.862;2023-08-08T08:45:33;7.38;;;1.48;;
52866;SDS011;38739;53.324;6.862;2023-08-08T08:48:07;5.53;;;1.40;;
52866;SDS011;38739;53.324;6.862;2023-08-08T08:50:35;5.55;;;1.27;;
52866;SDS011;38739;53.324;6.862;2023-08-08T08:53:03;5.40;;;1.02;;
52866;SDS011;38739;53.324;6.862;2023-08-08T08:55:30;6.10;;;1.33;;
52866;SDS011;38739;53.324;6.862;2023-08-08T08:57:55;6.70;;;1.10;;
52866;SDS011;38739;53.324;6.862;2023-08-08T09:00:21;7.60;;;1.20;;
52866;SDS011;38739;53.324;6.862;2023-08-08T09:02:47;3.63;;;1.00;;
52866;SDS011;38739;53.324;6.862;2023-08-08T09:05:14;6.85;;;1.30;;
52866;SDS011;38739;53.324;6.862;2023-08-08T09:07:41;6.70;;;1.02;;
52866;SDS011;38739;53.324;6.862;2023-08-08T09:10:07;5.25;;;1.08;;
52866;SDS011;38739;53.324;6.862;2023-08-08T09:12:33;6.57;;;1.17;;
52866;SDS011;38739;53.324;6.862;2023-08-08T09:14:59;3.42;;;1.10;;
52866;SDS011;38739;53.324;6.862;2023-08-08T09:17:26;4.75;;;1.17;;
52866;SDS011;38739;53.324;6.862;2023-08-08T09:19:53;4.68;;;1.00;;
52866;SDS011;38739;53.324;6.862;2023-08-08T09:22:23;6.75;;;1.38;;
52866;SDS011;38739;53.324;6.862;2023-08-08T09:24:50;9.88;;;1.85;;
52866;SDS011;38739;53.324;6.862;2023-08-08T09:27:16;12.50;;;3.97;;
52866;SDS011;38739;53.324;6.862;2023-08-08T09:29:41;9.82;;;1.90;;
52866;SDS011;38739;53.324;6.862;2023-08-08T09:32:07;4.68;;;1.33;;
52866;SDS011;38739;53.324;6.862;2023-08-08T09:34:34;7.18;;;1.70;;
52866;SDS011;38739;53.324;6.862;2023-08-08T09:37:00;4.78;;;1.10;;
52866;SDS011;38739;53.324;6.862;2023-08-08T09:39:26;6.88;;;1.58;;
52866;SDS011;38739;53.324;6.862;2023-08-08T09:41:53;6.25;;;1.38;;
52866;SDS011;38739;53.324;6.862;2023-08-08T09:44:22;4.60;;;1.30;;
52866;SDS011;38739;53.324;6.862;2023-08-08T09:46:50;8.60;;;1.73;;
52866;SDS011;38739;53.324;6.862;2023-08-08T09:49:16;6.07;;;1.42;;
52866;SDS011;38739;53.324;6.862;2023-08-08T09:51:42;7.20;;;1.40;;
52866;SDS011;38739;53.324;6.862;2023-08-08T09:54:08;8.10;;;1.58;;
52866;SDS011;38739;53.324;6.862;2023-08-08T09:56:35;8.48;;;1.42;;
52866;SDS011;38739;53.324;6.862;2023-08-08T09:59:02;8.75;;;1.70;;
52866;SDS011;38739;53.324;6.862;2023-08-08T10:01:30;6.13;;;1.40;;
52866;SDS011;38739;53.324;6.862;2023-08-08T10:03:57;7.45;;;1.33;;
52866;SDS011;38739;53.324;6.862;2023-08-08T10:06:23;6.82;;;1.50;;
52866;SDS011;38739;53.324;6.862;2023-08-08T10:08:49;8.32;;;1.73;;
52866;SDS011;38739;53.324;6.862;2023-08-08T10:11:15;6.13;;;1.17;;
52866;SDS011;38739;53.324;6.862;2023-08-08T10:13:48;9.98;;;2.08;;
52866;SDS011;38739;53.324;6.862;2023-08-08T10:16:18;7.15;;;1.40;;
52866;SDS011;38739;53.324;6.862;2023-08-08T10:18:45;5.40;;;1.27;;
52866;SDS011;38739;53.324;6.862;2023-08-08T10:21:20;5.50;;;1.30;;
52866;SDS011;38739;53.324;6.862;2023-08-08T10:23:47;6.07;;;1.50;;
52866;SDS011;38739;53.324;6.862;2023-08-08T10:26:18;7.10;;;1.65;;
52866;SDS011;38739;53.324;6.862;2023-08-08T10:28:57;3.50;;;1.48;;
52866;SDS011;38739;53.324;6.862;2023-08-08T10:31:24;31.98;;;3.08;;
52866;SDS011;38739;53.324;6.862;2023-08-08T10:33:59;11.52;;;3.35;;
52866;SDS011;38739;53.324;6.862;2023-08-08T10:36:42;8.27;;;1.73;;
52866;SDS011;38739;53.324;6.862;2023-08-08T10:39:10;5.13;;;1.63;;
52866;SDS011;38739;53.324;6.862;2023-08-08T10:41:45;5.18;;;1.63;;
52866;SDS011;38739;53.324;6.862;2023-08-08T10:44:21;6.60;;;1.30;;
52866;SDS011;38739;53.324;6.862;2023-08-08T10:46:48;4.78;;;1.27;;
52866;SDS011;38739;53.324;6.862;2023-08-08T10:49:15;6.63;;;1.30;;
52866;SDS011;38739;53.324;6.862;2023-08-08T10:51:42;3.90;;;1.02;;
52866;SDS011;38739;53.324;6.862;2023-08-08T10:54:22;6.47;;;1.45;;
52866;SDS011;38739;53.324;6.862;2023-08-08T10:59:22;6.32;;;1.70;;
52866;SDS011;38739;53.324;6.862;2023-08-08T11:01:49;6.35;;;1.30;;
52866;SDS011;38739;53.324;6.862;2023-08-08T11:04:18;5.40;;;1.40;;
52866;SDS011;38739;53.324;6.862;2023-08-08T11:06:45;6.40;;;1.30;;
52866;SDS011;38739;53.324;6.862;2023-08-08T11:09:12;5.75;;;1.33;;
52866;SDS011;38739;53.324;6.862;2023-08-08T11:11:39;7.97;;;1.65;;
52866;SDS011;38739;53.324;6.862;2023-08-08T11:14:10;9.68;;;1.30;;
52866;SDS011;38739;53.324;6.862;2023-08-08T11:16:41;4.50;;;1.10;;
52866;SDS011;38739;53.324;6.862;2023-08-08T11:19:08;6.28;;;1.30;;
52866;SDS011;38739;53.324;6.862;2023-08-08T11:21:37;6.07;;;1.20;;
52866;SDS011;38739;53.324;6.862;2023-08-08T11:24:05;7.65;;;1.00;;
52866;SDS011;38739;53.324;6.862;2023-08-08T11:26:32;4.82;;;1.20;;
52866;SDS011;38739;53.324;6.862;2023-08-08T11:28:59;5.28;;;1.20;;
52866;SDS011;38739;53.324;6.862;2023-08-08T11:31:26;5.13;;;1.05;;
52866;SDS011;38739;53.324;6.862;2023-08-08T11:33:53;6.47;;;1.20;;
52866;SDS011;38739;53.324;6.862;2023-08-08T11:36:19;6.07;;;1.10;;
52866;SDS011;38739;53.324;6.862;2023-08-08T11:38:46;6.65;;;1.40;;
52866;SDS011;38739;53.324;6.862;2023-08-08T11:41:16;8.10;;;1.40;;
52866;SDS011;38739;53.324;6.862;2023-08-08T11:43:44;5.82;;;1.20;;
52866;SDS011;38739;53.324;6.862;2023-08-08T11:46:14;4.95;;;1.00;;
52866;SDS011;38739;53.324;6.862;2023-08-08T11:48:41;4.43;;;1.10;;
52866;SDS011;38739;53.324;6.862;2023-08-08T11:51:07;5.57;;;1.17;;
52866;SDS011;38739;53.324;6.862;2023-08-08T11:53:34;3.53;;;1.20;;
52866;SDS011;38739;53.324;6.862;2023-08-08T11:56:03;7.82;;;1.10;;
52866;SDS011;38739;53.324;6.862;2023-08-08T11:58:29;9.60;;;1.55;;
52866;SDS011;38739;53.324;6.862;2023-08-08T12:00:56;6.65;;;1.10;;
52866;SDS011;38739;53.324;6.862;2023-08-08T12:03:22;7.30;;;1.10;;
52866;SDS011;38739;53.324;6.862;2023-08-08T12:05:50;7.03;;;1.60;;
52866;SDS011;38739;53.324;6.862;2023-08-08T12:08:20;6.63;;;1.20;;
52866;SDS011;38739;53.324;6.862;2023-08-08T12:10:50;6.60;;;1.10;;
52866;SDS011;38739;53.324;6.862;2023-08-08T12:13:22;9.48;;;1.60;;
52866;SDS011;38739;53.324;6.862;2023-08-08T12:15:52;8.93;;;1.27;;
52866;SDS011;38739;53.324;6.862;2023-08-08T12:18:18;7.78;;;1.30;;
52866;SDS011;38739;53.324;6.862;2023-08-08T12:20:44;5.43;;;1.00;;
52866;SDS011;38739;53.324;6.862;2023-08-08T12:23:11;5.80;;;1.15;;
52866;SDS011;38739;53.324;6.862;2023-08-08T12:25:37;7.25;;;1.23;;
52866;SDS011;38739;53.324;6.862;2023-08-08T12:28:04;5.65;;;1.20;;
52866;SDS011;38739;53.324;6.862;2023-08-08T12:30:30;7.28;;;1.45;;
52866;SDS011;38739;53.324;6.862;2023-08-08T12:32:56;6.72;;;1.33;;
52866;SDS011;38739;53.324;6.862;2023-08-08T12:35:22;6.50;;;1.20;;
52866;SDS011;38739;53.324;6.862;2023-08-08T12:37:48;6.28;;;0.90;;
52866;SDS011;38739;53.324;6.862;2023-08-08T12:40:13;6.68;;;1.00;;
52866;SDS011;38739;53.324;6.862;2023-08-08T12:42:39;4.80;;;1.13;;
52866;SDS011;38739;53.324;6.862;2023-08-08T12:45:08;7.60;;;1.20;;
52866;SDS011;38739;53.324;6.862;2023-08-08T12:47:35;4.85;;;0.95;;
52866;SDS011;38739;53.324;6.862;2023-08-08T12:50:05;5.70;;;0.90;;
52866;SDS011;38739;53.324;6.862;2023-08-08T12:52:33;6.25;;;1.20;;
52866;SDS011;38739;53.324;6.862;2023-08-08T12:54:58;7.18;;;1.20;;
52866;SDS011;38739;53.324;6.862;2023-08-08T12:57:24;4.70;;;0.95;;
52866;SDS011;38739;53.324;6.862;2023-08-08T12:59:50;3.97;;;1.05;;
52866;SDS011;38739;53.324;6.862;2023-08-08T13:02:16;6.25;;;0.80;;
52866;SDS011;38739;53.324;6.862;2023-08-08T13:04:42;7.25;;;0.98;;
52866;SDS011;38739;53.324;6.862;2023-08-08T13:07:07;5.85;;;1.10;;
52866;SDS011;38739;53.324;6.862;2023-08-08T13:09:34;5.97;;;1.02;;
52866;SDS011;38739;53.324;6.862;2023-08-08T13:12:00;4.90;;;1.25;;
52866;SDS011;38739;53.324;6.862;2023-08-08T13:14:26;5.10;;;1.27;;
52866;SDS011;38739;53.324;6.862;2023-08-08T13:16:51;6.10;;;1.20;;
52866;SDS011;38739;53.324;6.862;2023-08-08T13:19:17;8.90;;;1.58;;
52866;SDS011;38739;53.324;6.862;2023-08-08T13:21:46;5.80;;;1.20;;
52866;SDS011;38739;53.324;6.862;2023-08-08T13:24:12;5.97;;;1.05;;
52866;SDS011;38739;53.324;6.862;2023-08-08T13:26:38;5.30;;;1.20;;
52866;SDS011;38739;53.324;6.862;2023-08-08T13:29:04;7.07;;;1.10;;
52866;SDS011;38739;53.324;6.862;2023-08-08T13:31:30;8.75;;;1.92;;
52866;SDS011;38739;53.324;6.862;2023-08-08T13:33:56;6.18;;;1.55;;
52866;SDS011;38739;53.324;6.862;2023-08-08T13:36:21;6.43;;;1.15;;
52866;SDS011;38739;53.324;6.862;2023-08-08T13:38:47;5.57;;;1.25;;
52866;SDS011;38739;53.324;6.862;2023-08-08T13:41:12;7.93;;;1.95;;
52866;SDS011;38739;53.324;6.862;2023-08-08T13:43:38;7.40;;;1.50;;
52866;SDS011;38739;53.324;6.862;2023-08-08T13:46:04;7.43;;;1.20;;
52866;SDS011;38739;53.324;6.862;2023-08-08T13:48:33;4.38;;;1.20;;
52866;SDS011;38739;53.324;6.862;2023-08-08T13:50:59;8.88;;;1.25;;
52866;SDS011;38739;53.324;6.862;2023-08-08T13:53:25;10.25;;;1.25;;
52866;SDS011;38739;53.324;6.862;2023-08-08T13:55:51;5.13;;;0.98;;
52866;SDS011;38739;53.324;6.862;2023-08-08T13:58:16;4.50;;;0.90;;
52866;SDS011;38739;53.324;6.862;2023-08-08T14:00:42;4.07;;;0.93;;
52866;SDS011;38739;53.324;6.862;2023-08-08T14:03:08;4.63;;;1.15;;
52866;SDS011;38739;53.324;6.862;2023-08-08T14:05:33;9.13;;;1.30;;
52866;SDS011;38739;53.324;6.862;2023-08-08T14:07:59;3.42;;;0.80;;
52866;SDS011;38739;53.324;6.862;2023-08-08T14:10:25;3.97;;;0.90;;
52866;SDS011;38739;53.324;6.862;2023-08-08T14:12:51;4.97;;;0.93;;
52866;SDS011;38739;53.324;6.862;2023-08-08T14:15:16;4.30;;;0.90;;
52866;SDS011;38739;53.324;6.862;2023-08-08T14:17:42;4.97;;;0.90;;
52866;SDS011;38739;53.324;6.862;2023-08-08T14:20:09;3.58;;;0.95;;
52866;SDS011;38739;53.324;6.862;2023-08-08T14:22:35;7.10;;;1.02;;
52866;SDS011;38739;53.324;6.862;2023-08-08T14:25:01;6.45;;;1.27;;
52866;SDS011;38739;53.324;6.862;2023-08-08T14:27:27;5.00;;;1.00;;
52866;SDS011;38739;53.324;6.862;2023-08-08T14:29:53;5.25;;;0.90;;
52866;SDS011;38739;53.324;6.862;2023-08-08T14:32:18;6.20;;;1.13;;
52866;SDS011;38739;53.324;6.862;2023-08-08T14:34:44;9.90;;;1.17;;
52866;SDS011;38739;53.324;6.862;2023-08-08T14:37:10;5.50;;;0.95;;
52866;SDS011;38739;53.324;6.862;2023-08-08T14:39:37;7.38;;;1.08;;
52866;SDS011;38739;53.324;6.862;2023-08-08T14:42:02;5.63;;;1.38;;
52866;SDS011;38739;53.324;6.862;2023-08-08T14:44:28;6.13;;;1.10;;
52866;SDS011;38739;53.324;6.862;2023-08-08T14:46:54;4.70;;;1.13;;
52866;SDS011;38739;53.324;6.862;2023-08-08T14:49:19;4.13;;;0.93;;